createdAt,value
2022-08-03T00:01:23.441Z,1.80
2022-08-03T00:03:49.889Z,1.70
2022-08-03T00:06:16.374Z,1.90
2022-08-03T00:08:42.804Z,1.88
2022-08-03T00:11:09.303Z,1.70
2022-08-03T00:13:35.747Z,1.58
2022-08-03T00:16:02.253Z,1.55
2022-08-03T00:18:28.724Z,1.40
2022-08-03T00:20:55.169Z,1.23
2022-08-03T00:23:21.593Z,1.30
2022-08-03T00:25:48.075Z,1.27
2022-08-03T00:28:14.527Z,1.40
2022-08-03T00:30:41.950Z,1.30
2022-08-03T00:33:10.252Z,1.30
2022-08-03T00:35:50.921Z,1.40
2022-08-03T00:38:18.140Z,1.40
2022-08-03T00:40:44.602Z,1.15
2022-08-03T00:43:11.552Z,1.25
2022-08-03T00:45:42.385Z,1.10
2022-08-03T00:48:29.492Z,1.33
2022-08-03T00:50:56.905Z,1.38
2022-08-03T00:53:23.348Z,1.40
2022-08-03T00:55:49.817Z,1.40
2022-08-03T00:58:16.256Z,1.30
2022-08-03T01:00:43.037Z,1.30
2022-08-03T01:03:12.007Z,1.27
2022-08-03T01:05:46.259Z,1.50
2022-08-03T01:08:23.391Z,1.05
2022-08-03T01:11:04.065Z,1.10
2022-08-03T01:14:01.640Z,1.35
2022-08-03T01:16:37.155Z,1.30
2022-08-03T01:19:28.184Z,1.10
2022-08-03T01:22:18.506Z,1.20
2022-08-03T01:24:57.618Z,1.20
2022-08-03T01:27:42.688Z,1.27
2022-08-03T01:30:12.577Z,1.30
2022-08-03T01:32:57.983Z,1.40
2022-08-03T01:35:39.387Z,1.10
2022-08-03T01:38:11.860Z,1.73
2022-08-03T01:40:40.560Z,1.63
2022-08-03T01:43:07.989Z,1.92
2022-08-03T01:45:35.426Z,1.73
2022-08-03T01:48:03.122Z,1.65
2022-08-03T01:50:30.970Z,1.52
2022-08-03T01:52:58.974Z,1.40
2022-08-03T01:55:28.241Z,1.40
2022-08-03T01:58:05.282Z,1.60
2022-08-03T02:00:35.113Z,1.45
2022-08-03T02:03:01.982Z,1.50
2022-08-03T02:05:29.444Z,1.67
2022-08-03T02:07:56.695Z,1.50
2022-08-03T02:10:35.252Z,1.55
2022-08-03T02:13:04.284Z,1.40
2022-08-03T02:15:33.000Z,1.55
2022-08-03T02:18:00.325Z,1.20
2022-08-03T02:20:27.323Z,1.23
2022-08-03T02:22:53.900Z,1.67
2022-08-03T02:25:20.399Z,1.50
2022-08-03T02:27:52.977Z,1.83
2022-08-03T02:30:20.757Z,1.50
2022-08-03T02:32:52.101Z,1.33
2022-08-03T02:35:19.673Z,1.70
2022-08-03T02:37:52.434Z,1.40
2022-08-03T02:40:20.484Z,1.33
2022-08-03T02:42:47.519Z,1.40
2022-08-03T02:45:15.857Z,1.27
2022-08-03T02:47:54.218Z,1.50
2022-08-03T02:50:22.287Z,1.50
2022-08-03T02:52:49.849Z,1.50
2022-08-03T02:55:17.484Z,1.48
2022-08-03T02:57:44.805Z,1.42
2022-08-03T03:00:12.372Z,1.40
2022-08-03T03:02:40.404Z,1.58
2022-08-03T03:05:55.790Z,1.52
2022-08-03T03:07:58.600Z,1.67
2022-08-03T03:10:25.877Z,1.45
2022-08-03T03:12:55.773Z,1.50
2022-08-03T03:15:23.639Z,1.30
2022-08-03T03:17:50.354Z,2.17
2022-08-03T03:20:29.726Z,1.88
2022-08-03T03:22:58.527Z,1.80
2022-08-03T03:25:25.054Z,1.83
2022-08-03T03:27:51.720Z,1.40
2022-08-03T03:30:18.671Z,1.80
2022-08-03T03:32:45.112Z,1.30
2022-08-03T03:35:11.794Z,1.63
2022-08-03T03:37:38.299Z,1.65
2022-08-03T03:40:05.369Z,1.70
2022-08-03T03:42:32.006Z,1.80
2022-08-03T03:44:58.587Z,1.73
2022-08-03T03:47:32.236Z,1.63
2022-08-03T03:49:59.468Z,1.80
2022-08-03T03:52:25.933Z,1.80
2022-08-03T03:54:53.787Z,1.60
2022-08-03T03:57:21.876Z,1.50
2022-08-03T03:59:48.793Z,1.40
2022-08-03T04:02:15.413Z,1.75
2022-08-03T04:05:00.662Z,1.73
2022-08-03T04:07:46.288Z,1.90
2022-08-03T04:10:36.365Z,1.70
2022-08-03T04:13:04.240Z,1.90
2022-08-03T04:15:31.721Z,1.60
2022-08-03T04:17:59.176Z,1.70
2022-08-03T04:20:28.482Z,1.40
2022-08-03T04:22:55.948Z,1.40
2022-08-03T04:25:24.931Z,1.60
2022-08-03T04:28:29.274Z,1.70
2022-08-03T04:30:47.798Z,1.75
2022-08-03T04:33:15.029Z,1.60
2022-08-03T04:36:02.185Z,1.70
2022-08-03T04:38:35.704Z,1.55
2022-08-03T04:41:02.420Z,1.50
2022-08-03T04:43:29.589Z,2.10
2022-08-03T04:45:56.633Z,1.98
2022-08-03T04:48:23.155Z,1.67
2022-08-03T04:50:49.745Z,1.73
2022-08-03T04:53:16.581Z,1.52
2022-08-03T04:55:43.077Z,1.70
2022-08-03T04:58:09.555Z,1.70
2022-08-03T05:00:36.106Z,1.45
2022-08-03T05:03:02.558Z,1.50
2022-08-03T05:05:36.270Z,1.40
2022-08-03T05:08:15.906Z,1.75
2022-08-03T05:10:47.276Z,1.52
2022-08-03T05:13:14.533Z,1.67
2022-08-03T05:15:43.251Z,1.88
2022-08-03T05:18:13.835Z,1.40
2022-08-03T05:20:40.871Z,1.63
2022-08-03T05:23:07.344Z,1.65
2022-08-03T05:25:33.793Z,1.38
2022-08-03T05:28:00.238Z,1.50
2022-08-03T05:30:33.407Z,1.85
2022-08-03T05:33:02.355Z,1.73
2022-08-03T05:36:02.062Z,1.80
2022-08-03T05:38:24.121Z,1.50
2022-08-03T05:40:57.227Z,1.52
2022-08-03T05:43:24.385Z,1.42
2022-08-03T05:46:11.934Z,1.52
2022-08-03T05:48:37.265Z,1.55
2022-08-03T05:51:06.523Z,1.35
2022-08-03T05:53:33.941Z,1.55
2022-08-03T05:56:03.431Z,1.33
2022-08-03T05:58:39.901Z,1.27
2022-08-03T06:01:06.400Z,1.60
2022-08-03T06:03:32.917Z,1.42
2022-08-03T06:06:00.540Z,1.35
2022-08-03T06:08:27.217Z,1.15
2022-08-03T06:10:53.659Z,1.40
2022-08-03T06:13:20.166Z,1.30
2022-08-03T06:15:46.587Z,1.30
2022-08-03T06:18:13.040Z,1.40
2022-08-03T06:20:39.480Z,1.30
2022-08-03T06:23:06.487Z,1.10
2022-08-03T06:25:33.967Z,1.20
2022-08-03T06:28:00.479Z,1.27
2022-08-03T06:30:27.095Z,1.20
2022-08-03T06:32:53.619Z,1.25
2022-08-03T06:35:20.285Z,1.02
2022-08-03T06:37:48.639Z,1.10
2022-08-03T06:40:21.756Z,1.20
2022-08-03T06:42:50.962Z,1.00
2022-08-03T06:45:17.868Z,1.30
2022-08-03T06:47:44.576Z,1.10
2022-08-03T06:50:12.846Z,1.30
2022-08-03T06:52:43.880Z,1.20
2022-08-03T06:55:10.514Z,1.35
2022-08-03T06:57:37.035Z,1.23
2022-08-03T07:00:10.591Z,1.38
2022-08-03T07:02:39.694Z,1.38
2022-08-03T07:05:07.291Z,1.60
2022-08-03T07:07:33.838Z,1.20
2022-08-03T07:10:00.292Z,1.23
2022-08-03T07:12:29.800Z,1.38
2022-08-03T07:15:00.767Z,1.00
2022-08-03T07:17:29.994Z,1.13
2022-08-03T07:19:56.741Z,1.00
2022-08-03T07:22:23.649Z,1.30
2022-08-03T07:24:50.078Z,1.08
2022-08-03T07:27:16.717Z,1.00
2022-08-03T07:29:43.161Z,1.23
2022-08-03T07:32:09.725Z,1.27
2022-08-03T07:34:36.234Z,1.10
2022-08-03T07:37:02.675Z,1.00
2022-08-03T07:39:29.114Z,0.93
2022-08-03T07:41:55.666Z,0.95
2022-08-03T07:44:22.102Z,1.15
2022-08-03T07:46:48.580Z,1.30
2022-08-03T07:49:15.209Z,1.20
2022-08-03T07:51:41.698Z,1.10
2022-08-03T07:54:10.125Z,1.40
2022-08-03T07:56:37.343Z,1.10
2022-08-03T07:59:03.915Z,1.40
2022-08-03T08:01:32.738Z,1.10
2022-08-03T08:03:59.356Z,1.38
2022-08-03T08:06:25.800Z,1.30
2022-08-03T08:08:53.601Z,1.10
2022-08-03T08:11:22.199Z,1.15
2022-08-03T08:13:48.654Z,1.20
2022-08-03T08:16:15.124Z,1.30
2022-08-03T08:18:41.554Z,1.30
2022-08-03T08:21:08.041Z,1.20
2022-08-03T08:23:42.353Z,1.20
2022-08-03T08:26:10.472Z,1.13
2022-08-03T08:28:36.933Z,1.20
2022-08-03T08:31:03.423Z,1.40
2022-08-03T08:33:47.914Z,1.38
2022-08-03T08:36:16.764Z,1.40
2022-08-03T08:38:44.873Z,1.42
2022-08-03T08:41:12.676Z,1.30
2022-08-03T08:43:39.129Z,1.27
2022-08-03T08:46:08.250Z,1.45
2022-08-03T08:48:36.067Z,1.13
2022-08-03T08:51:02.644Z,1.35
2022-08-03T08:53:30.130Z,1.40
2022-08-03T08:56:01.049Z,1.48
2022-08-03T08:58:35.268Z,1.30
2022-08-03T09:01:01.824Z,1.60
2022-08-03T09:03:30.346Z,1.50
2022-08-03T09:05:59.308Z,1.58
2022-08-03T09:08:25.949Z,1.50
2022-08-03T09:10:52.409Z,1.50
2022-08-03T09:13:18.994Z,1.58
2022-08-03T09:16:00.566Z,1.50
2022-08-03T09:18:32.188Z,1.50
2022-08-03T09:21:32.160Z,1.60
2022-08-03T09:24:02.918Z,1.40
2022-08-03T09:26:31.464Z,1.70
2022-08-03T09:29:08.114Z,1.40
2022-08-03T09:31:45.993Z,1.77
2022-08-03T09:34:14.812Z,1.33
2022-08-03T09:36:49.135Z,1.50
2022-08-03T09:39:40.823Z,1.58
2022-08-03T09:42:14.704Z,1.50
2022-08-03T09:44:43.601Z,1.42
2022-08-03T09:47:11.282Z,1.55
2022-08-03T09:49:42.348Z,1.30
2022-08-03T09:52:31.676Z,1.30
2022-08-03T09:55:01.588Z,1.80
2022-08-03T09:57:30.572Z,1.13
2022-08-03T10:00:11.098Z,1.15
2022-08-03T10:02:38.102Z,1.20
2022-08-03T10:05:06.097Z,1.40
2022-08-03T10:07:45.937Z,1.50
2022-08-03T10:10:29.337Z,1.27
2022-08-03T10:12:58.721Z,1.50
2022-08-03T10:16:21.600Z,1.40
2022-08-03T10:18:11.653Z,1.30
2022-08-03T10:20:41.900Z,1.45
2022-08-03T10:23:08.365Z,1.05
2022-08-03T10:25:37.328Z,1.50
2022-08-03T10:28:04.605Z,1.50
2022-08-03T10:30:32.351Z,1.60
2022-08-03T10:33:03.527Z,1.67
2022-08-03T10:35:33.166Z,1.20
2022-08-03T10:38:02.461Z,1.40
2022-08-03T10:40:49.329Z,1.25
2022-08-03T10:43:22.920Z,1.35
2022-08-03T10:45:49.716Z,1.50
2022-08-03T10:48:16.745Z,1.48
2022-08-03T10:50:44.128Z,1.25
2022-08-03T10:53:10.597Z,1.60
2022-08-03T10:56:00.319Z,1.52
2022-08-03T10:58:37.464Z,1.58
2022-08-03T11:02:00.183Z,1.50
2022-08-03T11:04:29.241Z,1.50
2022-08-03T11:07:22.666Z,1.50
2022-08-03T11:09:54.369Z,1.40
2022-08-03T11:12:31.509Z,1.08
2022-08-03T11:15:08.724Z,1.48
2022-08-03T11:17:46.820Z,1.30
2022-08-03T11:20:48.956Z,1.20
2022-08-03T11:23:16.825Z,1.63
2022-08-03T11:26:08.851Z,1.40
2022-08-03T11:28:35.397Z,1.48
2022-08-03T11:31:48.233Z,1.45
2022-08-03T11:34:11.987Z,1.45
2022-08-03T11:37:16.291Z,1.30
2022-08-03T11:39:47.930Z,1.13
2022-08-03T11:42:27.407Z,1.38
2022-08-03T11:44:55.600Z,1.42
2022-08-03T11:47:23.132Z,1.50
2022-08-03T11:49:51.084Z,1.30
2022-08-03T11:52:17.958Z,1.30
2022-08-03T11:54:44.667Z,1.30
2022-08-03T11:57:11.356Z,1.50
2022-08-03T11:59:38.860Z,1.40
2022-08-03T12:02:14.675Z,1.38
2022-08-03T12:04:51.249Z,1.40
2022-08-03T12:07:25.070Z,1.73
2022-08-03T12:10:14.946Z,1.75
2022-08-03T12:12:46.350Z,1.63
2022-08-03T12:15:13.111Z,1.42
2022-08-03T12:17:41.096Z,1.40
2022-08-03T12:20:09.570Z,1.30
2022-08-03T12:22:40.279Z,1.40
2022-08-03T12:25:08.201Z,1.52
2022-08-03T12:27:35.359Z,1.60
2022-08-03T12:30:02.105Z,1.33
2022-08-03T12:32:29.475Z,1.30
2022-08-03T12:35:00.872Z,1.45
2022-08-03T12:37:27.984Z,1.20
2022-08-03T12:40:02.743Z,1.55
2022-08-03T12:42:37.923Z,1.40
2022-08-03T12:45:23.409Z,1.40
2022-08-03T12:47:57.830Z,1.42
2022-08-03T12:50:25.250Z,1.50
2022-08-03T12:52:51.714Z,1.67
2022-08-03T12:55:22.272Z,1.45
2022-08-03T12:57:49.287Z,1.40
2022-08-03T13:00:29.111Z,1.45
2022-08-03T13:03:38.472Z,1.45
2022-08-03T13:05:48.013Z,1.52
2022-08-03T13:08:18.835Z,1.50
2022-08-03T13:10:46.138Z,1.40
2022-08-03T13:13:12.593Z,1.65
2022-08-03T13:15:47.668Z,1.45
2022-08-03T13:18:15.245Z,1.50
2022-08-03T13:20:44.008Z,1.60
2022-08-03T13:23:12.985Z,1.60
2022-08-03T13:25:55.493Z,1.40
2022-08-03T13:28:22.865Z,1.77
2022-08-03T13:30:49.472Z,1.50
2022-08-03T13:33:15.997Z,1.30
2022-08-03T13:35:42.416Z,1.40
2022-08-03T13:38:08.928Z,1.42
2022-08-03T13:40:41.556Z,1.40
2022-08-03T13:43:08.484Z,1.42
2022-08-03T13:45:34.934Z,1.52
2022-08-03T13:48:01.387Z,1.40
2022-08-03T13:50:27.967Z,1.42
2022-08-03T13:52:54.415Z,1.30
2022-08-03T13:55:20.847Z,1.10
2022-08-03T13:58:04.544Z,1.30
2022-08-03T14:00:34.314Z,1.52
2022-08-03T14:03:12.506Z,1.77
2022-08-03T14:05:40.787Z,1.70
2022-08-03T14:08:07.741Z,1.70
2022-08-03T14:10:39.486Z,1.60
2022-08-03T14:13:06.152Z,1.60
2022-08-03T14:15:38.035Z,1.25
2022-08-03T14:18:06.206Z,1.83
2022-08-03T14:20:37.758Z,1.20
2022-08-03T14:23:14.650Z,1.42
2022-08-03T14:25:43.257Z,1.48
2022-08-03T14:28:16.804Z,1.40
2022-08-03T14:30:43.221Z,1.33
2022-08-03T14:33:09.723Z,1.40
2022-08-03T14:35:36.176Z,1.80
2022-08-03T14:38:02.609Z,1.42
2022-08-03T14:40:29.059Z,1.40
2022-08-03T14:42:55.521Z,1.38
2022-08-03T14:45:22.044Z,1.55
2022-08-03T14:50:27.981Z,1.50
2022-08-03T14:50:42.083Z,1.50
2022-08-03T14:53:09.585Z,1.73
2022-08-03T14:55:38.008Z,1.50
2022-08-03T14:58:19.341Z,1.60
2022-08-03T15:00:48.199Z,1.55
2022-08-03T15:03:15.928Z,1.50
2022-08-03T15:05:43.666Z,1.40
2022-08-03T15:08:10.127Z,1.60
2022-08-03T15:10:40.402Z,1.40
2022-08-03T15:13:11.351Z,1.60
2022-08-03T15:15:37.848Z,1.33
2022-08-03T15:18:04.406Z,1.25
2022-08-03T15:20:43.285Z,1.30
2022-08-03T15:23:11.351Z,1.42
2022-08-03T15:26:03.645Z,1.48
2022-08-03T15:28:24.355Z,1.50
2022-08-03T15:30:53.886Z,1.45
2022-08-03T15:33:20.581Z,1.33
2022-08-03T15:35:47.608Z,1.27
2022-08-03T15:38:14.241Z,1.30
2022-08-03T15:40:40.742Z,1.30
2022-08-03T15:43:07.503Z,1.23
2022-08-03T15:45:35.471Z,1.20
2022-08-03T15:48:04.081Z,1.20
2022-08-03T15:50:30.605Z,1.30
2022-08-03T15:52:57.095Z,1.30
2022-08-03T15:55:23.769Z,1.40
2022-08-03T15:59:09.527Z,1.27
2022-08-03T16:00:36.664Z,1.38
2022-08-03T16:03:03.229Z,1.35
2022-08-03T16:05:29.664Z,1.63
2022-08-03T16:07:58.574Z,1.33
2022-08-03T16:10:30.863Z,1.20
2022-08-03T16:12:58.842Z,1.42
2022-08-03T16:15:25.326Z,1.50
2022-08-03T16:17:51.898Z,1.48
2022-08-03T16:20:29.721Z,1.40
2022-08-03T16:23:01.616Z,1.40
2022-08-03T16:25:37.600Z,1.35
2022-08-03T16:28:08.242Z,1.10
2022-08-03T16:30:40.223Z,1.30
2022-08-03T16:33:06.925Z,1.48
2022-08-03T16:35:33.515Z,1.38
2022-08-03T16:37:59.992Z,1.40
2022-08-03T16:40:26.606Z,1.70
2022-08-03T16:42:53.120Z,1.35
2022-08-03T16:45:19.617Z,1.70
2022-08-03T16:47:46.086Z,1.75
2022-08-03T16:50:17.504Z,1.80
2022-08-03T16:52:47.191Z,2.05
2022-08-03T16:55:15.351Z,2.40
2022-08-03T16:57:58.730Z,2.40
2022-08-03T17:00:33.841Z,2.47
2022-08-03T17:03:19.074Z,2.58
2022-08-03T17:05:52.383Z,2.47
2022-08-03T17:08:27.303Z,2.90
2022-08-03T17:10:55.928Z,2.78
2022-08-03T17:13:22.796Z,2.85
2022-08-03T17:15:57.700Z,2.90
2022-08-03T17:18:25.503Z,2.53
2022-08-03T17:20:52.237Z,2.60
2022-08-03T17:23:38.931Z,2.70
2022-08-03T17:26:20.772Z,2.30
2022-08-03T17:28:58.009Z,1.90
2022-08-03T17:31:31.463Z,2.05
2022-08-03T17:34:00.617Z,1.55
2022-08-03T17:36:41.763Z,1.50
2022-08-03T17:39:21.142Z,1.67
2022-08-03T17:42:00.694Z,2.10
2022-08-03T17:44:35.271Z,2.28
2022-08-03T17:47:08.100Z,1.90
2022-08-03T17:49:40.203Z,1.60
2022-08-03T17:52:28.162Z,1.60
2022-08-03T17:58:06.738Z,1.80
2022-08-03T18:00:53.638Z,1.90
2022-08-03T18:03:58.932Z,2.08
2022-08-03T18:06:28.941Z,2.33
2022-08-03T18:09:00.199Z,2.38
2022-08-03T18:11:35.547Z,2.35
2022-08-03T18:14:16.442Z,2.40
2022-08-03T18:16:54.769Z,2.25
2022-08-03T18:19:22.150Z,1.95
2022-08-03T18:22:09.998Z,1.90
2022-08-03T18:24:36.653Z,1.83
2022-08-03T18:27:04.327Z,1.80
2022-08-03T18:29:33.660Z,1.73
2022-08-03T18:32:02.890Z,1.77
2022-08-03T18:34:32.829Z,1.70
2022-08-03T18:37:00.668Z,1.60
2022-08-03T18:39:31.883Z,1.50
2022-08-03T18:41:59.645Z,1.30
2022-08-03T18:44:37.769Z,1.60
2022-08-03T18:47:50.956Z,1.70
2022-08-03T18:50:25.127Z,1.73
2022-08-03T18:53:05.420Z,1.70
2022-08-03T18:56:14.153Z,1.80
2022-08-03T18:59:02.423Z,1.60
2022-08-03T19:02:00.108Z,1.70
2022-08-03T19:04:36.805Z,1.70
2022-08-03T19:07:07.950Z,1.60
2022-08-03T19:09:37.429Z,1.80
2022-08-03T19:12:32.364Z,1.95
2022-08-03T19:15:06.290Z,1.75
2022-08-03T19:17:50.283Z,1.58
2022-08-03T19:20:21.049Z,1.52
2022-08-03T19:22:50.580Z,1.67
2022-08-03T19:25:17.577Z,1.80
2022-08-03T19:27:46.180Z,1.50
2022-08-03T19:30:34.848Z,1.50
2022-08-03T19:33:05.897Z,1.63
2022-08-03T19:35:52.238Z,1.75
2022-08-03T19:38:28.270Z,2.10
2022-08-03T19:41:02.981Z,1.77
2022-08-03T19:43:52.850Z,1.75
2022-08-03T19:46:21.809Z,1.45
2022-08-03T19:48:57.690Z,1.70
2022-08-03T19:51:56.693Z,1.50
2022-08-03T19:54:16.217Z,1.70
2022-08-03T19:56:47.259Z,1.77
2022-08-03T19:59:15.741Z,1.65
2022-08-03T20:01:50.752Z,1.70
2022-08-03T20:04:17.724Z,1.70
2022-08-03T20:06:47.837Z,1.75
2022-08-03T20:09:16.261Z,1.80
2022-08-03T20:11:44.971Z,1.80
2022-08-03T20:14:11.874Z,1.58
2022-08-03T20:16:48.107Z,1.67
2022-08-03T20:19:16.529Z,1.80
2022-08-03T20:21:47.652Z,2.20
2022-08-03T20:24:24.471Z,1.65
2022-08-03T20:26:53.525Z,1.88
2022-08-03T20:29:42.693Z,1.80
2022-08-03T20:32:16.591Z,1.77
2022-08-03T20:34:44.351Z,1.80
2022-08-03T20:37:15.917Z,1.77
2022-08-03T20:39:48.193Z,1.73
2022-08-03T20:42:21.072Z,1.75
2022-08-03T20:45:06.149Z,1.90
2022-08-03T20:47:35.700Z,1.85
2022-08-03T20:50:03.795Z,1.98
2022-08-03T20:52:32.216Z,1.88
2022-08-03T20:54:59.234Z,1.75
2022-08-03T20:57:28.641Z,1.50
2022-08-03T21:00:00.555Z,1.80
2022-08-03T21:02:29.471Z,1.67
2022-08-03T21:05:03.758Z,1.80
2022-08-03T21:08:03.822Z,1.60
2022-08-03T21:10:29.854Z,1.98
2022-08-03T21:12:55.765Z,1.42
2022-08-03T21:13:23.710Z,1.90
2022-08-03T21:16:04.115Z,1.65
2022-08-03T21:18:44.612Z,1.77
2022-08-03T21:21:15.081Z,1.70
2022-08-03T21:23:48.865Z,1.52
2022-08-03T21:26:17.661Z,1.70
2022-08-03T21:28:46.691Z,2.03
2022-08-03T21:31:14.211Z,2.20
2022-08-03T21:33:47.128Z,1.73
2022-08-03T21:36:14.447Z,1.90
2022-08-03T21:38:41.958Z,1.70
2022-08-03T21:41:08.910Z,1.88
2022-08-03T21:43:35.450Z,1.92
2022-08-03T21:46:04.235Z,1.83
2022-08-03T21:48:36.257Z,1.83
2022-08-03T21:51:04.346Z,2.00
2022-08-03T21:54:03.841Z,1.77
2022-08-03T21:56:20.962Z,2.17
2022-08-03T21:58:51.469Z,2.03
2022-08-03T22:01:20.744Z,1.80
2022-08-03T22:03:53.223Z,1.83
2022-08-03T22:06:21.542Z,1.60
2022-08-03T22:08:50.057Z,2.00
2022-08-03T22:11:16.655Z,2.20
2022-08-03T22:13:44.675Z,1.85
2022-08-03T22:16:11.721Z,2.05
2022-08-03T22:18:39.257Z,1.85
2022-08-03T22:21:07.187Z,2.25
2022-08-03T22:23:37.697Z,2.15
2022-08-03T22:26:04.303Z,2.03
2022-08-03T22:28:30.979Z,1.90
2022-08-03T22:30:58.846Z,2.00
2022-08-03T22:33:26.685Z,1.83
2022-08-03T22:35:56.565Z,2.00
2022-08-03T22:38:25.553Z,1.60
2022-08-03T22:40:52.672Z,2.05
2022-08-03T22:43:24.002Z,2.28
2022-08-03T22:46:08.970Z,1.90
2022-08-03T22:48:40.731Z,1.85
2022-08-03T22:51:07.963Z,2.10
2022-08-03T22:53:34.534Z,2.00
2022-08-03T22:56:01.256Z,2.15
2022-08-03T22:58:27.802Z,1.80
2022-08-03T23:01:08.483Z,2.30
2022-08-03T23:04:00.481Z,1.98
2022-08-03T23:06:26.510Z,2.25
2022-08-03T23:08:53.560Z,1.95
2022-08-03T23:11:21.064Z,2.00
2022-08-03T23:13:53.558Z,2.10
2022-08-03T23:16:28.817Z,1.90
2022-08-03T23:18:56.588Z,2.08
2022-08-03T23:21:53.872Z,2.30
2022-08-03T23:24:17.663Z,1.90
2022-08-03T23:26:55.965Z,1.80
2022-08-03T23:29:23.553Z,1.92
2022-08-03T23:31:50.616Z,2.20
2022-08-03T23:34:35.690Z,2.30
2022-08-03T23:37:02.295Z,2.15
2022-08-03T23:39:31.904Z,2.10
2022-08-03T23:42:02.818Z,2.17
2022-08-03T23:44:30.763Z,2.13
2022-08-03T23:46:57.278Z,2.10
2022-08-03T23:49:23.753Z,2.30
2022-08-03T23:52:14.912Z,2.42
2022-08-03T23:54:50.389Z,2.17
2022-08-03T23:57:42.914Z,2.15
